createdAt,value
2016-02-07T00:00:10.464Z,0
2016-02-07T00:01:10.405Z,0
2016-02-07T00:02:10.409Z,0
2016-02-07T00:03:10.396Z,0
2016-02-07T00:04:10.398Z,0
2016-02-07T00:05:10.385Z,0
2016-02-07T00:06:10.420Z,0
2016-02-07T00:07:10.375Z,0
2016-02-07T00:08:10.393Z,0
2016-02-07T00:09:10.383Z,0
2016-02-07T00:10:10.385Z,0
2016-02-07T00:11:10.372Z,0
2016-02-07T00:12:10.374Z,0
2016-02-07T00:13:10.377Z,0
2016-02-07T00:14:10.397Z,0
2016-02-07T00:15:10.352Z,0
2016-02-07T00:16:10.370Z,0
2016-02-07T00:17:10.362Z,0
2016-02-07T00:18:10.379Z,0
2016-02-07T00:19:10.382Z,0
2016-02-07T00:20:10.354Z,0
2016-02-07T00:21:10.340Z,0
2016-02-07T00:22:10.345Z,0
2016-02-07T00:23:10.364Z,0
2016-02-07T00:24:10.366Z,0
2016-02-07T00:25:10.340Z,0
2016-02-07T00:26:10.328Z,0
2016-02-07T00:27:10.346Z,0
2016-02-07T00:28:10.333Z,0
2016-02-07T00:29:10.352Z,0
2016-02-07T00:30:10.547Z,0
2016-02-07T00:31:10.331Z,0
2016-02-07T00:32:10.334Z,0
2016-02-07T00:33:10.322Z,0
2016-02-07T00:34:10.325Z,0
2016-02-07T00:35:10.344Z,0
2016-02-07T00:36:10.316Z,0
2016-02-07T00:37:10.319Z,0
2016-02-07T00:38:10.321Z,0
2016-02-07T00:39:10.308Z,0
2016-02-07T00:40:10.313Z,0
2016-02-07T00:41:10.300Z,0
2016-02-07T00:42:10.334Z,0
2016-02-07T00:43:10.308Z,0
2016-02-07T00:44:10.294Z,0
2016-02-07T00:45:10.297Z,0
2016-02-07T00:46:10.284Z,0
2016-02-07T00:47:10.286Z,0
2016-02-07T00:48:10.305Z,0
2016-02-07T00:49:10.277Z,0
2016-02-07T00:50:10.263Z,0
2016-02-07T00:51:10.281Z,0
2016-02-07T00:52:10.332Z,0
2016-02-07T00:53:10.256Z,0
2016-02-07T00:54:10.279Z,0
2016-02-07T00:55:10.265Z,0
2016-02-07T00:56:10.268Z,0
2016-02-07T00:57:10.240Z,0
2016-02-07T00:58:10.258Z,0
2016-02-07T00:59:10.245Z,0
2016-02-07T01:00:10.279Z,0
2016-02-07T01:01:10.251Z,0
2016-02-07T01:02:10.239Z,0
2016-02-07T01:03:10.272Z,0
2016-02-07T01:04:10.229Z,0
2016-02-07T01:05:10.232Z,0
2016-02-07T01:06:10.219Z,0
2016-02-07T01:07:10.253Z,0
2016-02-07T01:08:10.224Z,0
2016-02-07T01:09:10.480Z,0
2016-02-07T01:10:10.218Z,0
2016-02-07T01:11:10.221Z,0
2016-02-07T01:12:10.224Z,0
2016-02-07T01:13:10.227Z,0
2016-02-07T01:14:10.229Z,0
2016-02-07T01:15:10.185Z,0
2016-02-07T01:16:10.171Z,0
2016-02-07T01:17:10.192Z,0
2016-02-07T01:18:10.179Z,0
2016-02-07T01:19:10.181Z,0
2016-02-07T01:20:10.168Z,0
2016-02-07T01:21:10.234Z,0
2016-02-07T01:22:10.174Z,0
2016-02-07T01:23:10.177Z,0
2016-02-07T01:24:10.133Z,0
2016-02-07T01:25:10.152Z,0
2016-02-07T01:26:10.154Z,0
2016-02-07T01:27:10.173Z,0
2016-02-07T01:28:10.128Z,0
2016-02-07T01:29:10.147Z,0
2016-02-07T01:30:10.135Z,0
2016-02-07T01:31:10.122Z,0
2016-02-07T01:32:10.140Z,0
2016-02-07T01:33:10.143Z,0
2016-02-07T01:34:10.129Z,0
2016-02-07T01:35:10.118Z,0
2016-02-07T01:36:10.120Z,0
2016-02-07T01:37:10.107Z,0
2016-02-07T01:38:10.129Z,0
2016-02-07T01:39:10.085Z,0
2016-02-07T01:40:10.088Z,0
2016-02-07T01:41:10.091Z,0
2016-02-07T01:42:10.093Z,0
2016-02-07T01:43:10.080Z,0
2016-02-07T01:44:10.098Z,0
2016-02-07T01:45:10.101Z,0
2016-02-07T01:46:10.088Z,0
2016-02-07T01:47:10.074Z,0
2016-02-07T01:48:10.093Z,0
2016-02-07T01:49:10.080Z,0
2016-02-07T01:50:10.068Z,0
2016-02-07T01:51:10.086Z,0
2016-02-07T01:52:10.058Z,0
2016-02-07T01:53:10.030Z,0
2016-02-07T01:54:10.033Z,0
2016-02-07T01:55:10.035Z,0
2016-02-07T01:56:10.040Z,0
2016-02-07T01:57:10.026Z,0
2016-02-07T01:58:10.014Z,0
2016-02-07T01:59:10.033Z,0
2016-02-07T02:00:10.067Z,0
2016-02-07T02:01:10.023Z,0
2016-02-07T02:02:10.041Z,0
2016-02-07T02:03:10.021Z,0
2016-02-07T02:04:09.823Z,0
2016-02-07T02:05:09.999Z,0
2016-02-07T02:06:09.954Z,0
2016-02-07T02:07:09.927Z,0
2016-02-07T02:08:09.904Z,0
2016-02-07T02:09:09.918Z,0
2016-02-07T02:10:09.930Z,0
2016-02-07T02:11:09.896Z,0
2016-02-07T02:12:09.862Z,0
2016-02-07T02:13:09.892Z,0
2016-02-07T02:14:09.925Z,0
2016-02-07T02:15:09.863Z,0
2016-02-07T02:16:09.895Z,0
2016-02-07T02:17:09.849Z,0
2016-02-07T02:18:09.850Z,0
2016-02-07T02:19:09.868Z,0
2016-02-07T02:20:09.839Z,0
2016-02-07T02:21:09.841Z,0
2016-02-07T02:22:09.844Z,0
2016-02-07T02:23:09.894Z,0
2016-02-07T02:24:09.833Z,0
2016-02-07T02:25:09.823Z,0
2016-02-07T02:26:09.826Z,0
2016-02-07T02:27:09.580Z,0
2016-02-07T02:28:09.336Z,0
2016-02-07T02:29:11.190Z,0
2016-02-07T02:30:10.332Z,0
2016-02-07T02:31:09.882Z,0
2016-02-07T02:32:09.790Z,0
2016-02-07T02:33:09.857Z,0
2016-02-07T02:34:09.781Z,0
2016-02-07T02:35:09.831Z,0
2016-02-07T02:36:09.864Z,0
2016-02-07T02:37:09.820Z,0
2016-02-07T02:38:09.776Z,0
2016-02-07T02:39:09.748Z,0
2016-02-07T02:40:09.750Z,0
2016-02-07T02:41:09.768Z,0
2016-02-07T02:42:09.583Z,0
2016-02-07T02:43:09.732Z,0
2016-02-07T02:44:09.750Z,0
2016-02-07T02:45:09.753Z,0
2016-02-07T02:46:09.725Z,0
2016-02-07T02:47:09.728Z,0
2016-02-07T02:48:09.731Z,0
2016-02-07T02:49:09.734Z,0
2016-02-07T02:50:09.548Z,0
2016-02-07T02:51:09.709Z,0
2016-02-07T02:52:09.712Z,0
2016-02-07T02:53:09.711Z,0
2016-02-07T02:54:09.697Z,0
2016-02-07T02:55:09.700Z,0
2016-02-07T02:56:09.702Z,0
2016-02-07T02:57:09.688Z,0
2016-02-07T02:58:09.661Z,0
2016-02-07T02:59:09.649Z,0
2016-02-07T03:00:09.668Z,0
2016-02-07T03:01:09.686Z,0
2016-02-07T03:02:09.690Z,0
2016-02-07T03:03:09.645Z,0
2016-02-07T03:04:09.476Z,0
2016-02-07T03:05:09.656Z,0
2016-02-07T03:06:09.674Z,0
2016-02-07T03:07:09.629Z,0
2016-02-07T03:08:09.633Z,0
2016-02-07T03:09:09.917Z,0
2016-02-07T03:10:09.654Z,0
2016-02-07T03:11:09.656Z,0
2016-02-07T03:12:09.615Z,0
2016-02-07T03:13:09.618Z,0
2016-02-07T03:14:09.621Z,0
2016-02-07T03:15:09.654Z,0
2016-02-07T03:16:09.657Z,0
2016-02-07T03:17:09.613Z,0
2016-02-07T03:18:09.617Z,0
2016-02-07T03:19:09.587Z,0
2016-02-07T03:20:22.341Z,0
2016-02-07T03:21:09.612Z,0
2016-02-07T03:22:09.615Z,0
2016-02-07T03:23:09.587Z,0
2016-02-07T03:24:09.589Z,0
2016-02-07T03:25:09.592Z,0
2016-02-07T03:26:09.595Z,0
2016-02-07T03:27:09.565Z,0
2016-02-07T03:28:09.553Z,0
2016-02-07T03:29:09.571Z,0
2016-02-07T03:30:09.573Z,0
2016-02-07T03:31:09.561Z,0
2016-02-07T03:32:09.564Z,0
2016-02-07T03:33:09.535Z,0
2016-02-07T03:34:09.538Z,0
2016-02-07T03:35:09.572Z,0
2016-02-07T03:36:09.559Z,0
2016-02-07T03:37:09.530Z,0
2016-02-07T03:38:09.534Z,0
2016-02-07T03:39:09.536Z,0
2016-02-07T03:40:09.570Z,0
2016-02-07T03:41:09.510Z,0
2016-02-07T03:42:09.513Z,0
2016-02-07T03:43:09.516Z,0
2016-02-07T03:44:09.504Z,0
2016-02-07T03:45:09.506Z,0
2016-02-07T03:46:09.510Z,0
2016-02-07T03:47:09.496Z,0
2016-02-07T03:48:09.500Z,0
2016-02-07T03:49:09.518Z,0
2016-02-07T03:50:09.507Z,0
2016-02-07T03:51:09.494Z,0
2016-02-07T03:52:09.512Z,0
2016-02-07T03:53:09.484Z,0
2016-02-07T03:54:09.314Z,0
2016-02-07T03:55:09.489Z,0
2016-02-07T03:56:09.508Z,0
2016-02-07T03:57:09.478Z,0
2016-02-07T03:58:09.544Z,0
2016-02-07T03:59:09.548Z,0
2016-02-07T04:00:09.487Z,0
2016-02-07T04:01:09.475Z,0
2016-02-07T04:02:09.449Z,0
2016-02-07T04:03:09.467Z,0
2016-02-07T04:04:09.485Z,0
2016-02-07T04:05:09.441Z,0
2016-02-07T04:06:09.458Z,0
2016-02-07T04:07:09.290Z,0
2016-02-07T04:08:09.465Z,0
2016-02-07T04:09:09.483Z,0
2016-02-07T04:10:09.454Z,0
2016-02-07T04:11:09.441Z,0
2016-02-07T04:12:09.444Z,0
2016-02-07T04:13:09.416Z,0
2016-02-07T04:14:09.418Z,0
2016-02-07T04:15:09.436Z,0
2016-02-07T04:16:09.454Z,0
2016-02-07T04:17:09.458Z,0
2016-02-07T04:18:09.412Z,0
2016-02-07T04:19:09.415Z,0
2016-02-07T04:20:09.435Z,0
2016-02-07T04:21:09.406Z,0
2016-02-07T04:22:09.409Z,0
2016-02-07T04:23:09.412Z,0
2016-02-07T04:24:09.414Z,0
2016-02-07T04:25:09.417Z,0
2016-02-07T04:26:09.387Z,0
2016-02-07T04:27:09.391Z,0
2016-02-07T04:28:09.393Z,0
2016-02-07T04:29:09.381Z,0
2016-02-07T04:30:09.367Z,0
2016-02-07T04:31:09.370Z,0
2016-02-07T04:32:09.373Z,0
2016-02-07T04:33:09.375Z,0
2016-02-07T04:34:09.409Z,0
2016-02-07T04:35:09.365Z,0
2016-02-07T04:36:09.383Z,0
2016-02-07T04:37:09.376Z,0
2016-02-07T04:38:09.378Z,0
2016-02-07T04:39:09.365Z,0
2016-02-07T04:40:09.430Z,0
2016-02-07T04:41:09.439Z,0
2016-02-07T04:42:09.348Z,0
2016-02-07T04:43:09.351Z,0
2016-02-07T04:44:09.353Z,0
2016-02-07T04:45:09.372Z,0
2016-02-07T04:46:09.328Z,0
2016-02-07T04:47:09.336Z,0
2016-02-07T04:48:09.339Z,0
2016-02-07T04:49:09.325Z,0
2016-02-07T04:50:09.328Z,0
2016-02-07T04:51:09.331Z,0
2016-02-07T04:52:09.334Z,0
2016-02-07T04:53:09.321Z,0
2016-02-07T04:54:09.308Z,0
2016-02-07T04:55:09.341Z,0
2016-02-07T04:56:09.344Z,0
2016-02-07T04:57:09.319Z,0
2016-02-07T04:58:09.306Z,0
2016-02-07T04:59:09.308Z,0
2016-02-07T05:00:09.311Z,0
2016-02-07T05:01:09.299Z,0
2016-02-07T05:02:09.130Z,0
2016-02-07T05:03:09.320Z,0
2016-02-07T05:04:09.292Z,0
2016-02-07T05:05:09.294Z,0
2016-02-07T05:06:09.141Z,0
2016-02-07T05:07:09.301Z,0
2016-02-07T05:08:09.272Z,0
2016-02-07T05:09:09.290Z,0
2016-02-07T05:10:09.279Z,0
2016-02-07T05:11:09.297Z,0
2016-02-07T05:12:09.300Z,0
2016-02-07T05:13:09.256Z,0
2016-02-07T05:14:09.258Z,0
2016-02-07T05:15:09.263Z,0
2016-02-07T05:16:09.251Z,0
2016-02-07T05:17:09.277Z,0
2016-02-07T05:18:09.265Z,0
2016-02-07T05:19:09.283Z,0
2016-02-07T05:20:09.255Z,0
2016-02-07T05:21:09.242Z,0
2016-02-07T05:22:09.260Z,0
2016-02-07T05:23:09.233Z,0
2016-02-07T05:24:09.235Z,0
2016-02-07T05:25:09.239Z,0
2016-02-07T05:26:09.241Z,0
2016-02-07T05:27:09.259Z,0
2016-02-07T05:28:09.230Z,0
2016-02-07T05:29:09.217Z,0
2016-02-07T05:30:09.235Z,0
2016-02-07T05:31:09.223Z,0
2016-02-07T05:32:09.210Z,0
2016-02-07T05:33:09.213Z,0
2016-02-07T05:34:09.247Z,0
2016-02-07T05:35:09.202Z,0
2016-02-07T05:36:09.206Z,0
2016-02-07T05:37:09.209Z,0
2016-02-07T05:38:09.227Z,0
2016-02-07T05:39:09.214Z,0
2016-02-07T05:40:09.201Z,0
2016-02-07T05:41:09.204Z,0
2016-02-07T05:42:09.196Z,0
2016-02-07T05:43:09.198Z,0
2016-02-07T05:44:09.202Z,0
2016-02-07T05:45:09.237Z,0
2016-02-07T05:46:09.208Z,0
2016-02-07T05:47:09.180Z,0
2016-02-07T05:48:09.183Z,0
2016-02-07T05:49:09.028Z,0
2016-02-07T05:50:09.253Z,0
2016-02-07T05:51:09.178Z,0
2016-02-07T05:52:09.180Z,0
2016-02-07T05:53:09.166Z,0
2016-02-07T05:54:09.186Z,0
2016-02-07T05:55:09.157Z,0
2016-02-07T05:56:09.175Z,0
2016-02-07T05:57:09.178Z,0
2016-02-07T05:58:09.166Z,0
2016-02-07T05:59:09.169Z,0
2016-02-07T06:00:09.172Z,0
2016-02-07T06:01:09.142Z,0
2016-02-07T06:02:09.145Z,0
2016-02-07T06:03:09.148Z,0
2016-02-07T06:04:09.168Z,0
2016-02-07T06:05:09.154Z,0
2016-02-07T06:06:09.157Z,0
2016-02-07T06:07:09.133Z,0
2016-02-07T06:08:09.167Z,0
2016-02-07T06:09:09.358Z,0
2016-02-07T06:10:09.126Z,0
2016-02-07T06:11:09.132Z,0
2016-02-07T06:12:09.135Z,0
2016-02-07T06:13:09.168Z,0
2016-02-07T06:14:09.140Z,0
2016-02-07T06:15:09.129Z,0
2016-02-07T06:16:09.132Z,0
2016-02-07T06:17:09.102Z,0
2016-02-07T06:18:09.121Z,0
2016-02-07T06:19:09.139Z,0
2016-02-07T06:20:09.110Z,0
2016-02-07T06:21:09.098Z,4
2016-02-07T06:22:09.116Z,4
2016-02-07T06:23:09.118Z,4
2016-02-07T06:24:08.981Z,0
2016-02-07T06:25:09.093Z,4
2016-02-07T06:26:09.079Z,4
2016-02-07T06:27:09.098Z,4
2016-02-07T06:28:09.117Z,4
2016-02-07T06:29:09.088Z,4
2016-02-07T06:30:09.075Z,8
2016-02-07T06:31:09.093Z,8
2016-02-07T06:32:09.065Z,8
2016-02-07T06:33:09.099Z,12
2016-02-07T06:34:09.071Z,16
2016-02-07T06:35:09.074Z,16
2016-02-07T06:36:09.061Z,20
2016-02-07T06:37:09.097Z,20
2016-02-07T06:38:09.068Z,24
2016-02-07T06:39:09.102Z,24
2016-02-07T06:40:09.058Z,32
2016-02-07T06:41:09.045Z,32
2016-02-07T06:42:09.063Z,36
2016-02-07T06:43:08.941Z,40
2016-02-07T06:44:09.054Z,44
2016-02-07T06:45:09.043Z,48
2016-02-07T06:46:09.060Z,52
2016-02-07T06:47:09.048Z,60
2016-02-07T06:48:09.034Z,60
2016-02-07T06:49:09.053Z,72
2016-02-07T06:50:09.041Z,76
2016-02-07T06:51:09.060Z,80
2016-02-07T06:52:09.030Z,88
2016-02-07T06:53:09.034Z,96
2016-02-07T06:54:09.037Z,100
2016-02-07T06:55:09.039Z,108
2016-02-07T06:56:09.042Z,112
2016-02-07T06:57:09.014Z,124
2016-02-07T06:58:09.017Z,128
2016-02-07T06:59:08.864Z,136
2016-02-07T07:00:09.007Z,148
2016-02-07T07:01:09.009Z,156
2016-02-07T07:02:08.997Z,164
2016-02-07T07:03:09.015Z,172
2016-02-07T07:04:09.039Z,184
2016-02-07T07:05:09.025Z,196
2016-02-07T07:06:08.982Z,204
2016-02-07T07:07:09.001Z,220
2016-02-07T07:08:09.004Z,232
2016-02-07T07:09:08.990Z,240
2016-02-07T07:10:08.993Z,256
2016-02-07T07:11:08.997Z,272
2016-02-07T07:12:09.016Z,288
2016-02-07T07:13:08.987Z,300
2016-02-07T07:14:08.974Z,316
2016-02-07T07:15:08.998Z,336
2016-02-07T07:16:09.001Z,348
2016-02-07T07:17:09.003Z,368
2016-02-07T07:18:08.974Z,388
2016-02-07T07:19:08.980Z,408
2016-02-07T07:20:09.015Z,432
2016-02-07T07:21:08.970Z,448
2016-02-07T07:22:08.973Z,464
2016-02-07T07:23:08.959Z,480
2016-02-07T07:24:08.966Z,500
2016-02-07T07:25:08.985Z,508
2016-02-07T07:26:08.941Z,520
2016-02-07T07:27:08.944Z,532
2016-02-07T07:28:08.963Z,544
2016-02-07T07:29:08.964Z,556
2016-02-07T07:30:08.984Z,572
2016-02-07T07:31:08.783Z,580
2016-02-07T07:32:08.977Z,592
2016-02-07T07:33:08.933Z,612
2016-02-07T07:34:08.952Z,640
2016-02-07T07:35:08.954Z,660
2016-02-07T07:36:08.925Z,692
2016-02-07T07:37:08.929Z,724
2016-02-07T07:38:08.931Z,756
2016-02-07T07:39:08.965Z,784
2016-02-07T07:40:08.922Z,788
2016-02-07T07:41:08.908Z,808
2016-02-07T07:42:08.911Z,816
2016-02-07T07:43:08.930Z,816
2016-02-07T07:44:08.916Z,816
2016-02-07T07:45:08.909Z,816
2016-02-07T07:46:08.912Z,820
2016-02-07T07:47:08.766Z,824
2016-02-07T07:48:08.893Z,832
2016-02-07T07:49:08.912Z,840
2016-02-07T07:50:08.915Z,848
2016-02-07T07:51:08.901Z,856
2016-02-07T07:52:08.889Z,864
2016-02-07T07:53:08.908Z,876
2016-02-07T07:54:08.895Z,880
2016-02-07T07:55:08.898Z,892
2016-02-07T07:56:08.900Z,908
2016-02-07T07:57:08.872Z,924
2016-02-07T07:58:08.890Z,944
2016-02-07T07:59:08.876Z,960
2016-02-07T08:00:08.895Z,980
2016-02-07T08:01:08.915Z,1000
2016-02-07T08:02:08.871Z,1012
2016-02-07T08:03:08.858Z,1024
2016-02-07T08:04:08.876Z,1064
2016-02-07T08:05:08.894Z,1096
2016-02-07T08:06:08.866Z,1124
2016-02-07T08:07:08.870Z,1152
2016-02-07T08:08:08.872Z,1184
2016-02-07T08:09:08.858Z,1212
2016-02-07T08:10:08.861Z,1232
2016-02-07T08:11:08.863Z,1268
2016-02-07T08:12:08.914Z,1292
2016-02-07T08:13:08.855Z,1316
2016-02-07T08:14:08.845Z,1320
2016-02-07T08:15:08.864Z,1320
2016-02-07T08:16:08.869Z,1324
2016-02-07T08:17:08.855Z,1328
2016-02-07T08:18:08.858Z,1332
2016-02-07T08:19:08.846Z,1328
2016-02-07T08:20:08.849Z,1352
2016-02-07T08:21:08.837Z,1380
2016-02-07T08:22:08.855Z,1412
2016-02-07T08:23:08.857Z,1432
2016-02-07T08:24:08.860Z,1468
2016-02-07T08:25:08.831Z,1484
2016-02-07T08:26:08.819Z,1480
2016-02-07T08:27:08.856Z,1496
2016-02-07T08:28:08.827Z,1532
2016-02-07T08:29:08.845Z,1556
2016-02-07T08:30:08.817Z,1584
2016-02-07T08:31:08.834Z,1604
2016-02-07T08:32:08.854Z,1616
2016-02-07T08:33:08.826Z,1620
2016-02-07T08:34:08.813Z,1668
2016-02-07T08:35:08.800Z,1712
2016-02-07T08:36:08.803Z,1764
2016-02-07T08:37:08.822Z,1824
2016-02-07T08:38:08.825Z,1868
2016-02-07T08:39:08.811Z,1912
2016-02-07T08:40:08.814Z,1944
2016-02-07T08:41:08.804Z,1940
2016-02-07T08:42:08.823Z,1960
2016-02-07T08:43:08.825Z,1968
2016-02-07T08:44:08.796Z,1972
2016-02-07T08:45:08.799Z,1956
2016-02-07T08:46:08.806Z,1960
2016-02-07T08:47:08.829Z,1984
2016-02-07T08:48:08.800Z,2036
2016-02-07T08:49:08.802Z,2044
2016-02-07T08:50:08.790Z,2080
2016-02-07T08:51:08.793Z,2108
2016-02-07T08:52:08.795Z,2084
2016-02-07T08:53:08.657Z,2084
2016-02-07T08:54:08.786Z,2044
2016-02-07T08:55:08.788Z,2060
2016-02-07T08:56:08.795Z,2072
2016-02-07T08:57:08.642Z,2136
2016-02-07T08:58:08.784Z,2224
2016-02-07T08:59:08.787Z,2300
2016-02-07T09:00:08.789Z,2280
2016-02-07T09:01:08.792Z,2288
2016-02-07T09:02:08.778Z,2252
2016-02-07T09:03:08.781Z,2256
2016-02-07T09:04:08.799Z,2260
2016-02-07T09:05:08.771Z,2296
2016-02-07T09:06:08.758Z,2384
2016-02-07T09:07:08.776Z,2444
2016-02-07T09:08:08.778Z,2484
2016-02-07T09:09:08.891Z,2512
2016-02-07T09:10:08.783Z,2528
2016-02-07T09:11:08.787Z,2556
2016-02-07T09:12:08.789Z,2620
2016-02-07T09:13:08.777Z,2688
2016-02-07T09:14:08.766Z,2756
2016-02-07T09:15:08.769Z,2796
2016-02-07T09:16:08.772Z,2828
2016-02-07T09:17:08.775Z,2860
2016-02-07T09:18:08.779Z,2892
2016-02-07T09:19:08.782Z,2876
2016-02-07T09:20:08.757Z,2796
2016-02-07T09:21:08.761Z,2736
2016-02-07T09:22:08.779Z,2632
2016-02-07T09:23:08.753Z,2524
2016-02-07T09:24:08.755Z,2580
2016-02-07T09:25:08.773Z,2532
2016-02-07T09:26:08.776Z,2480
2016-02-07T09:27:08.764Z,2324
2016-02-07T09:28:08.754Z,2184
2016-02-07T09:29:08.757Z,2056
2016-02-07T09:30:08.744Z,1976
2016-02-07T09:31:08.731Z,1908
2016-02-07T09:32:08.734Z,1876
2016-02-07T09:33:08.756Z,1836
2016-02-07T09:34:08.586Z,1808
2016-02-07T09:35:08.761Z,1772
2016-02-07T09:36:08.753Z,1752
2016-02-07T09:37:08.756Z,1752
2016-02-07T09:38:08.742Z,1744
2016-02-07T09:39:08.775Z,1720
2016-02-07T09:40:08.747Z,1724
2016-02-07T09:41:08.735Z,1720
2016-02-07T09:42:08.753Z,1708
2016-02-07T09:43:08.755Z,1708
2016-02-07T09:44:08.775Z,1712
2016-02-07T09:45:08.745Z,1784
2016-02-07T09:46:08.781Z,1840
2016-02-07T09:47:08.736Z,1872
2016-02-07T09:48:08.739Z,1880
2016-02-07T09:49:08.744Z,1928
2016-02-07T09:50:08.748Z,1996
2016-02-07T09:51:08.578Z,2036
2016-02-07T09:52:08.737Z,2052
2016-02-07T09:53:08.739Z,2084
2016-02-07T09:54:08.726Z,2136
2016-02-07T09:55:08.744Z,2156
2016-02-07T09:56:08.747Z,2224
2016-02-07T09:57:08.735Z,2300
2016-02-07T09:58:08.738Z,2332
2016-02-07T09:59:08.757Z,2376
2016-02-07T10:00:08.744Z,2348
2016-02-07T10:01:08.746Z,2356
2016-02-07T10:02:08.750Z,2328
2016-02-07T10:03:08.722Z,2348
2016-02-07T10:04:08.755Z,2332
2016-02-07T10:05:08.744Z,2328
2016-02-07T10:06:08.762Z,2352
2016-02-07T10:07:08.749Z,2352
2016-02-07T10:08:08.704Z,2400
2016-02-07T10:09:08.754Z,2444
2016-02-07T10:10:08.726Z,2528
2016-02-07T10:11:08.729Z,2604
2016-02-07T10:12:08.747Z,2636
2016-02-07T10:13:08.750Z,2716
2016-02-07T10:14:08.721Z,2800
2016-02-07T10:15:08.709Z,2828
2016-02-07T10:16:08.711Z,2796
2016-02-07T10:17:08.714Z,2772
2016-02-07T10:18:08.717Z,2724
2016-02-07T10:19:08.721Z,2588
2016-02-07T10:20:08.715Z,2532
2016-02-07T10:21:08.751Z,2476
2016-02-07T10:22:08.738Z,2436
2016-02-07T10:23:08.728Z,2440
2016-02-07T10:24:08.730Z,2496
2016-02-07T10:25:08.718Z,2556
2016-02-07T10:26:08.705Z,2600
2016-02-07T10:27:08.724Z,2688
2016-02-07T10:28:08.726Z,2776
2016-02-07T10:29:08.714Z,2888
2016-02-07T10:30:08.717Z,3028
2016-02-07T10:31:08.564Z,3208
2016-02-07T10:32:08.754Z,3336
2016-02-07T10:33:08.726Z,3380
2016-02-07T10:34:08.697Z,3476
2016-02-07T10:35:08.716Z,3488
2016-02-07T10:36:08.703Z,3488
2016-02-07T10:37:08.737Z,3436
2016-02-07T10:38:08.709Z,3396
2016-02-07T10:39:08.701Z,3396
2016-02-07T10:40:08.703Z,3404
2016-02-07T10:41:08.737Z,3444
2016-02-07T10:42:08.692Z,3532
2016-02-07T10:43:08.726Z,3632
2016-02-07T10:44:08.715Z,3704
2016-02-07T10:45:08.733Z,3776
2016-02-07T10:46:08.704Z,3820
2016-02-07T10:47:21.442Z,3768
2016-02-07T10:48:08.709Z,3704
2016-02-07T10:49:08.744Z,3612
2016-02-07T10:50:08.715Z,3532
2016-02-07T10:51:08.705Z,3444
2016-02-07T10:52:08.726Z,3372
2016-02-07T10:53:08.729Z,3300
2016-02-07T10:54:08.715Z,3280
2016-02-07T10:55:08.718Z,3264
2016-02-07T10:56:08.706Z,3224
2016-02-07T10:57:08.723Z,3204
2016-02-07T10:58:08.696Z,3212
2016-02-07T10:59:08.698Z,3216
2016-02-07T11:00:08.702Z,3232
2016-02-07T11:01:08.704Z,3268
2016-02-07T11:02:08.692Z,3284
2016-02-07T11:03:08.709Z,3296
2016-02-07T11:04:08.572Z,3320
2016-02-07T11:05:08.715Z,3388
2016-02-07T11:06:08.719Z,3496
2016-02-07T11:07:08.690Z,3584
2016-02-07T11:08:08.724Z,3636
2016-02-07T11:09:08.711Z,3648
2016-02-07T11:10:08.688Z,3636
2016-02-07T11:11:08.679Z,3644
2016-02-07T11:12:08.669Z,3680
2016-02-07T11:13:08.658Z,3752
2016-02-07T11:14:08.680Z,3832
2016-02-07T11:15:08.694Z,3952
2016-02-07T11:16:08.676Z,4056
2016-02-07T11:17:08.643Z,4168
2016-02-07T11:18:08.672Z,4368
2016-02-07T11:19:08.673Z,4524
2016-02-07T11:20:08.474Z,4572
2016-02-07T11:21:08.663Z,4628
2016-02-07T11:22:08.649Z,4672
2016-02-07T11:23:08.634Z,4672
2016-02-07T11:24:08.636Z,4680
2016-02-07T11:25:08.668Z,4780
2016-02-07T11:26:08.639Z,4916
2016-02-07T11:27:08.642Z,4988
2016-02-07T11:28:08.644Z,4988
2016-02-07T11:29:08.817Z,5060
2016-02-07T11:30:08.648Z,5028
2016-02-07T11:31:08.651Z,5176
2016-02-07T11:32:08.637Z,5268
2016-02-07T11:33:08.655Z,5348
2016-02-07T11:34:08.657Z,5492
2016-02-07T11:35:08.677Z,5688
2016-02-07T11:36:08.680Z,5860
2016-02-07T11:37:08.666Z,6036
2016-02-07T11:38:08.653Z,6172
2016-02-07T11:39:08.671Z,6220
2016-02-07T11:40:08.692Z,6204
2016-02-07T11:41:08.663Z,6124
2016-02-07T11:42:08.665Z,5860
2016-02-07T11:43:08.668Z,5668
2016-02-07T11:44:08.687Z,5304
2016-02-07T11:45:08.673Z,5088
2016-02-07T11:46:08.677Z,4796
2016-02-07T11:47:08.695Z,4572
2016-02-07T11:48:08.698Z,4432
2016-02-07T11:49:08.669Z,4316
2016-02-07T11:50:08.687Z,4236
2016-02-07T11:51:08.690Z,4152
2016-02-07T11:52:08.678Z,4088
2016-02-07T11:53:08.697Z,4056
2016-02-07T11:54:08.716Z,4052
2016-02-07T11:55:08.688Z,4064
2016-02-07T11:56:08.690Z,4076
2016-02-07T11:57:08.708Z,4088
2016-02-07T11:58:08.742Z,4100
2016-02-07T11:59:08.745Z,4092
2016-02-07T12:00:08.717Z,4084
2016-02-07T12:01:08.736Z,4100
2016-02-07T12:02:08.738Z,4080
2016-02-07T12:03:08.741Z,4032
2016-02-07T12:04:08.727Z,4020
2016-02-07T12:05:08.763Z,4048
2016-02-07T12:06:08.754Z,4092
2016-02-07T12:07:08.757Z,4132
2016-02-07T12:08:08.743Z,4172
2016-02-07T12:09:08.747Z,4248
2016-02-07T12:10:08.734Z,4316
2016-02-07T12:11:08.736Z,4400
2016-02-07T12:12:08.739Z,4524
2016-02-07T12:13:08.773Z,4660
2016-02-07T12:14:08.761Z,4768
2016-02-07T12:15:08.764Z,4832
2016-02-07T12:16:08.766Z,4860
2016-02-07T12:17:08.816Z,4880
2016-02-07T12:18:08.756Z,4924
2016-02-07T12:19:08.619Z,5044
2016-02-07T12:20:08.777Z,5260
2016-02-07T12:21:08.810Z,5524
2016-02-07T12:22:08.782Z,5744
2016-02-07T12:23:08.801Z,5860
2016-02-07T12:24:08.784Z,5880
2016-02-07T12:25:08.788Z,5872
2016-02-07T12:26:08.901Z,5904
2016-02-07T12:27:08.780Z,6052
2016-02-07T12:28:08.797Z,6240
2016-02-07T12:29:08.800Z,6376
2016-02-07T12:30:08.819Z,6388
2016-02-07T12:31:08.790Z,6316
2016-02-07T12:32:08.808Z,6196
2016-02-07T12:33:08.812Z,6088
2016-02-07T12:34:08.831Z,6048
2016-02-07T12:35:08.837Z,6148
2016-02-07T12:36:08.823Z,6252
2016-02-07T12:37:08.825Z,6228
2016-02-07T12:38:08.845Z,6136
2016-02-07T12:39:08.831Z,6120
2016-02-07T12:40:08.834Z,6212
2016-02-07T12:41:08.884Z,6488
2016-02-07T12:42:08.840Z,6624
2016-02-07T12:43:08.874Z,6364
2016-02-07T12:44:08.845Z,6112
2016-02-07T12:45:08.848Z,5488
2016-02-07T12:46:08.882Z,4880
2016-02-07T12:47:08.854Z,4436
2016-02-07T12:48:08.872Z,4112
2016-02-07T12:49:08.860Z,3920
2016-02-07T12:50:08.909Z,3600
2016-02-07T12:51:08.913Z,3328
2016-02-07T12:52:08.884Z,3092
2016-02-07T12:53:08.887Z,2952
2016-02-07T12:54:08.893Z,2956
2016-02-07T12:55:08.896Z,3008
2016-02-07T12:56:08.913Z,3068
2016-02-07T12:57:08.888Z,3028
2016-02-07T12:58:08.906Z,2912
2016-02-07T12:59:08.909Z,2832
2016-02-07T13:00:08.895Z,2876
2016-02-07T13:01:08.960Z,2792
2016-02-07T13:02:08.933Z,2640
2016-02-07T13:03:08.905Z,2536
2016-02-07T13:04:08.908Z,2400
2016-02-07T13:05:08.910Z,2308
2016-02-07T13:06:08.913Z,2260
2016-02-07T13:07:08.977Z,2408
2016-02-07T13:08:08.980Z,2516
2016-02-07T13:09:08.921Z,2448
2016-02-07T13:10:08.923Z,2468
2016-02-07T13:11:08.957Z,2556
2016-02-07T13:12:08.960Z,2864
2016-02-07T13:13:09.197Z,3176
2016-02-07T13:14:08.934Z,3056
2016-02-07T13:15:08.953Z,3060
2016-02-07T13:16:08.940Z,3120
2016-02-07T13:17:08.958Z,3072
2016-02-07T13:18:09.023Z,3088
2016-02-07T13:19:08.964Z,3116
2016-02-07T13:20:08.967Z,3184
2016-02-07T13:21:08.953Z,3136
2016-02-07T13:22:08.956Z,3004
2016-02-07T13:23:08.959Z,2828
2016-02-07T13:24:08.980Z,2704
2016-02-07T13:25:08.968Z,2628
2016-02-07T13:26:08.974Z,2632
2016-02-07T13:27:08.976Z,2736
2016-02-07T13:28:08.979Z,2888
2016-02-07T13:29:08.981Z,3032
2016-02-07T13:30:08.968Z,3124
2016-02-07T13:31:08.987Z,3156
2016-02-07T13:32:08.973Z,3140
2016-02-07T13:33:09.007Z,3104
2016-02-07T13:34:08.979Z,3136
2016-02-07T13:35:08.998Z,3220
2016-02-07T13:36:08.989Z,3196
2016-02-07T13:37:08.976Z,3120
2016-02-07T13:38:08.978Z,3136
2016-02-07T13:39:08.981Z,3292
2016-02-07T13:40:08.984Z,3592
2016-02-07T13:41:08.972Z,3980
2016-02-07T13:42:08.989Z,4328
2016-02-07T13:43:08.992Z,4556
2016-02-07T13:44:08.996Z,4664
2016-02-07T13:45:08.983Z,4624
2016-02-07T13:46:08.986Z,4384
2016-02-07T13:47:09.004Z,4232
2016-02-07T13:48:08.819Z,4604
2016-02-07T13:49:08.996Z,5420
2016-02-07T13:50:08.983Z,5992
2016-02-07T13:51:09.001Z,5940
2016-02-07T13:52:09.004Z,5556
2016-02-07T13:53:08.991Z,5156
2016-02-07T13:54:08.995Z,4916
2016-02-07T13:55:08.998Z,4856
2016-02-07T13:56:09.016Z,4888
2016-02-07T13:57:08.991Z,4884
2016-02-07T13:58:08.994Z,4924
2016-02-07T13:59:09.013Z,5084
2016-02-07T14:00:09.000Z,5280
2016-02-07T14:01:09.034Z,5320